Aviation Digital Data Service (ADDS)

Output produced by METARs form (1142 UTC 27 May 2015)
found at http://aviationweather.gov/adds/metars/
 
KCLT 271139Z 2712/2812 20004KT P6SM SCT004 BKN120 
     TEMPO 2712/2714 6SM BR BKN004 OVC120 
     FM271400 20005KT P6SM OVC015 
     FM271600 20006KT P6SM OVC030 
     FM271800 18007KT P6SM OVC060 
     PROB30 2721/2803 4SM TSRA BKN040CB 
     FM280400 17004KT P6SM BKN060